Terminal Aerodrome Forecast
Issued by NWS Bismarck, ND

Home | Current Version | Previous Version | Graphics & Text | Print | Product List | Glossary On
Versions: 1 2 3 4 5 6 7 8 9 10 11 12
362
FTUS43 KBIS 161125
TAFISN
TAF
KISN 161125Z 1612/1712 24005KT P6SM SCT250
     FM161600 27010KT P6SM SCT250=

USA.gov is the U.S. government's official web portal to all federal, state and local government web resources and services.